sensor_id;sensor_type;location;lat;lon;timestamp;P1;durP1;ratioP1;P2;durP2;ratioP2
5702;SDS011;2876;51.738;10.050;2022-08-19T00:05:09;21.47;;;13.10;;
5702;SDS011;2876;51.738;10.050;2022-08-19T00:11:12;18.07;;;12.37;;
5702;SDS011;2876;51.738;10.050;2022-08-19T00:17:26;17.37;;;11.20;;
5702;SDS011;2876;51.738;10.050;2022-08-19T00:23:28;11.57;;;10.10;;
5702;SDS011;2876;51.738;10.050;2022-08-19T00:29:30;13.00;;;10.90;;
5702;SDS011;2876;51.738;10.050;2022-08-19T00:35:32;14.87;;;10.10;;
5702;SDS011;2876;51.738;10.050;2022-08-19T00:41:35;17.87;;;11.03;;
5702;SDS011;2876;51.738;10.050;2022-08-19T00:47:38;11.90;;;9.10;;
5702;SDS011;2876;51.738;10.050;2022-08-19T00:53:40;13.50;;;10.50;;
5702;SDS011;2876;51.738;10.050;2022-08-19T00:59:46;18.20;;;10.53;;
5702;SDS011;2876;51.738;10.050;2022-08-19T01:06:03;13.43;;;10.20;;
5702;SDS011;2876;51.738;10.050;2022-08-19T01:12:06;12.27;;;9.53;;
5702;SDS011;2876;51.738;10.050;2022-08-19T01:18:10;11.10;;;8.63;;
5702;SDS011;2876;51.738;10.050;2022-08-19T01:24:15;16.70;;;9.33;;
5702;SDS011;2876;51.738;10.050;2022-08-19T01:30:19;13.13;;;9.50;;
5702;SDS011;2876;51.738;10.050;2022-08-19T01:36:39;13.93;;;8.53;;
5702;SDS011;2876;51.738;10.050;2022-08-19T01:42:50;16.23;;;9.50;;
5702;SDS011;2876;51.738;10.050;2022-08-19T01:48:54;14.20;;;9.63;;
5702;SDS011;2876;51.738;10.050;2022-08-19T01:54:56;14.20;;;9.57;;
5702;SDS011;2876;51.738;10.050;2022-08-19T02:00:58;10.33;;;8.33;;
5702;SDS011;2876;51.738;10.050;2022-08-19T02:07:00;14.03;;;8.87;;
5702;SDS011;2876;51.738;10.050;2022-08-19T02:13:02;13.60;;;11.00;;
5702;SDS011;2876;51.738;10.050;2022-08-19T02:19:05;15.37;;;10.17;;
5702;SDS011;2876;51.738;10.050;2022-08-19T02:25:08;13.03;;;10.20;;
5702;SDS011;2876;51.738;10.050;2022-08-19T02:31:13;19.13;;;11.87;;
5702;SDS011;2876;51.738;10.050;2022-08-19T02:37:19;14.97;;;12.03;;
5702;SDS011;2876;51.738;10.050;2022-08-19T02:43:40;13.23;;;11.67;;
5702;SDS011;2876;51.738;10.050;2022-08-19T02:50:02;13.50;;;11.60;;
5702;SDS011;2876;51.738;10.050;2022-08-19T02:56:06;17.13;;;13.20;;
5702;SDS011;2876;51.738;10.050;2022-08-19T03:02:09;22.80;;;12.97;;
5702;SDS011;2876;51.738;10.050;2022-08-19T03:08:11;14.17;;;11.30;;
5702;SDS011;2876;51.738;10.050;2022-08-19T03:14:14;17.67;;;13.13;;
5702;SDS011;2876;51.738;10.050;2022-08-19T03:20:16;19.57;;;13.13;;
5702;SDS011;2876;51.738;10.050;2022-08-19T03:26:18;13.67;;;11.40;;
5702;SDS011;2876;51.738;10.050;2022-08-19T03:32:20;19.10;;;11.10;;
5702;SDS011;2876;51.738;10.050;2022-08-19T03:38:33;22.53;;;13.67;;
5702;SDS011;2876;51.738;10.050;2022-08-19T03:44:45;14.70;;;11.80;;
5702;SDS011;2876;51.738;10.050;2022-08-19T03:50:48;16.80;;;12.70;;
5702;SDS011;2876;51.738;10.050;2022-08-19T03:56:51;18.40;;;12.53;;
5702;SDS011;2876;51.738;10.050;2022-08-19T04:02:56;17.83;;;12.70;;
5702;SDS011;2876;51.738;10.050;2022-08-19T04:09:02;16.87;;;13.70;;
5702;SDS011;2876;51.738;10.050;2022-08-19T04:15:12;18.20;;;13.83;;
5702;SDS011;2876;51.738;10.050;2022-08-19T04:21:20;18.13;;;12.77;;
5702;SDS011;2876;51.738;10.050;2022-08-19T04:27:25;18.50;;;14.70;;
5702;SDS011;2876;51.738;10.050;2022-08-19T04:33:27;14.73;;;12.90;;
5702;SDS011;2876;51.738;10.050;2022-08-19T04:39:30;18.43;;;11.20;;
5702;SDS011;2876;51.738;10.050;2022-08-19T04:45:51;17.23;;;10.20;;
5702;SDS011;2876;51.738;10.050;2022-08-19T04:51:57;15.97;;;10.00;;
5702;SDS011;2876;51.738;10.050;2022-08-19T04:57:59;14.87;;;10.93;;
5702;SDS011;2876;51.738;10.050;2022-08-19T05:04:02;11.90;;;9.33;;
5702;SDS011;2876;51.738;10.050;2022-08-19T05:10:07;13.83;;;10.40;;
5702;SDS011;2876;51.738;10.050;2022-08-19T05:16:10;13.93;;;10.77;;
5702;SDS011;2876;51.738;10.050;2022-08-19T05:22:13;14.90;;;11.17;;
5702;SDS011;2876;51.738;10.050;2022-08-19T05:28:34;12.13;;;9.63;;
5702;SDS011;2876;51.738;10.050;2022-08-19T05:34:36;13.03;;;10.30;;
5702;SDS011;2876;51.738;10.050;2022-08-19T05:40:39;14.87;;;10.60;;
5702;SDS011;2876;51.738;10.050;2022-08-19T05:46:43;13.40;;;10.07;;
5702;SDS011;2876;51.738;10.050;2022-08-19T05:52:48;12.57;;;8.60;;
5702;SDS011;2876;51.738;10.050;2022-08-19T05:58:51;9.90;;;7.57;;
5702;SDS011;2876;51.738;10.050;2022-08-19T06:04:54;10.77;;;7.33;;
5702;SDS011;2876;51.738;10.050;2022-08-19T06:10:59;9.60;;;6.90;;
5702;SDS011;2876;51.738;10.050;2022-08-19T06:17:16;9.03;;;6.43;;
5702;SDS011;2876;51.738;10.050;2022-08-19T06:23:22;8.03;;;6.50;;
5702;SDS011;2876;51.738;10.050;2022-08-19T06:29:25;7.50;;;6.00;;
5702;SDS011;2876;51.738;10.050;2022-08-19T06:35:29;13.97;;;7.20;;
5702;SDS011;2876;51.738;10.050;2022-08-19T06:41:34;10.90;;;7.43;;
5702;SDS011;2876;51.738;10.050;2022-08-19T06:47:47;8.30;;;6.10;;
5702;SDS011;2876;51.738;10.050;2022-08-19T06:53:50;11.80;;;6.33;;
5702;SDS011;2876;51.738;10.050;2022-08-19T06:59:56;7.93;;;6.07;;
5702;SDS011;2876;51.738;10.050;2022-08-19T07:06:02;11.23;;;5.97;;
5702;SDS011;2876;51.738;10.050;2022-08-19T07:12:31;9.27;;;5.43;;
5702;SDS011;2876;51.738;10.050;2022-08-19T07:18:36;12.57;;;6.20;;
5702;SDS011;2876;51.738;10.050;2022-08-19T07:24:44;9.77;;;5.87;;
5702;SDS011;2876;51.738;10.050;2022-08-19T07:30:52;6.77;;;4.97;;
5702;SDS011;2876;51.738;10.050;2022-08-19T07:36:55;9.17;;;5.80;;
5702;SDS011;2876;51.738;10.050;2022-08-19T07:42:58;11.20;;;5.53;;
5702;SDS011;2876;51.738;10.050;2022-08-19T07:49:00;8.10;;;5.40;;
5702;SDS011;2876;51.738;10.050;2022-08-19T07:55:04;6.57;;;5.40;;
5702;SDS011;2876;51.738;10.050;2022-08-19T08:01:29;8.13;;;5.73;;
5702;SDS011;2876;51.738;10.050;2022-08-19T08:07:31;6.00;;;5.40;;
5702;SDS011;2876;51.738;10.050;2022-08-19T08:13:52;6.30;;;5.70;;
5702;SDS011;2876;51.738;10.050;2022-08-19T08:20:03;9.80;;;5.47;;
5702;SDS011;2876;51.738;10.050;2022-08-19T08:26:08;5.60;;;5.10;;
5702;SDS011;2876;51.738;10.050;2022-08-19T08:32:10;8.17;;;4.97;;
5702;SDS011;2876;51.738;10.050;2022-08-19T08:38:14;8.23;;;5.30;;
5702;SDS011;2876;51.738;10.050;2022-08-19T08:44:23;5.37;;;4.67;;
5702;SDS011;2876;51.738;10.050;2022-08-19T08:50:45;5.20;;;4.30;;
5702;SDS011;2876;51.738;10.050;2022-08-19T08:56:51;5.70;;;4.83;;
5702;SDS011;2876;51.738;10.050;2022-08-19T09:02:56;7.07;;;4.07;;
5702;SDS011;2876;51.738;10.050;2022-08-19T09:15:34;7.00;;;3.60;;
5702;SDS011;2876;51.738;10.050;2022-08-19T09:21:47;5.53;;;3.80;;
5702;SDS011;2876;51.738;10.050;2022-08-19T09:27:51;4.90;;;3.33;;
5702;SDS011;2876;51.738;10.050;2022-08-19T09:34:02;6.07;;;3.20;;
5702;SDS011;2876;51.738;10.050;2022-08-19T09:40:06;6.63;;;3.70;;
5702;SDS011;2876;51.738;10.050;2022-08-19T09:46:12;12.73;;;3.17;;
5702;SDS011;2876;51.738;10.050;2022-08-19T09:52:18;4.10;;;3.07;;
5702;SDS011;2876;51.738;10.050;2022-08-19T09:58:20;6.10;;;3.43;;
5702;SDS011;2876;51.738;10.050;2022-08-19T10:04:27;4.70;;;3.37;;
5702;SDS011;2876;51.738;10.050;2022-08-19T10:10:49;3.47;;;3.10;;
5702;SDS011;2876;51.738;10.050;2022-08-19T10:16:51;4.10;;;3.70;;
5702;SDS011;2876;51.738;10.050;2022-08-19T10:22:53;3.10;;;2.80;;
5702;SDS011;2876;51.738;10.050;2022-08-19T10:28:56;7.67;;;3.40;;
5702;SDS011;2876;51.738;10.050;2022-08-19T10:34:59;3.93;;;3.03;;
5702;SDS011;2876;51.738;10.050;2022-08-19T10:41:13;3.70;;;2.80;;
5702;SDS011;2876;51.738;10.050;2022-08-19T10:47:23;3.70;;;2.30;;
5702;SDS011;2876;51.738;10.050;2022-08-19T10:53:26;4.27;;;2.70;;
5702;SDS011;2876;51.738;10.050;2022-08-19T10:59:36;3.93;;;2.80;;
5702;SDS011;2876;51.738;10.050;2022-08-19T11:05:39;2.47;;;2.20;;
5702;SDS011;2876;51.738;10.050;2022-08-19T11:11:42;8.17;;;1.87;;
5702;SDS011;2876;51.738;10.050;2022-08-19T11:17:45;4.00;;;2.27;;
5702;SDS011;2876;51.738;10.050;2022-08-19T11:23:48;1.97;;;1.67;;
5702;SDS011;2876;51.738;10.050;2022-08-19T11:29:54;2.20;;;1.43;;
5702;SDS011;2876;51.738;10.050;2022-08-19T11:35:57;2.13;;;1.93;;
5702;SDS011;2876;51.738;10.050;2022-08-19T11:42:02;1.53;;;1.43;;
5702;SDS011;2876;51.738;10.050;2022-08-19T11:48:27;2.30;;;1.70;;
5702;SDS011;2876;51.738;10.050;2022-08-19T11:54:29;1.40;;;1.30;;
5702;SDS011;2876;51.738;10.050;2022-08-19T12:00:32;1.70;;;1.60;;
5702;SDS011;2876;51.738;10.050;2022-08-19T12:06:37;2.43;;;2.03;;
5702;SDS011;2876;51.738;10.050;2022-08-19T12:12:41;3.97;;;1.67;;
5702;SDS011;2876;51.738;10.050;2022-08-19T12:18:54;2.03;;;1.70;;
5702;SDS011;2876;51.738;10.050;2022-08-19T12:24:56;2.40;;;1.60;;
5702;SDS011;2876;51.738;10.050;2022-08-19T12:30:59;2.50;;;1.30;;
5702;SDS011;2876;51.738;10.050;2022-08-19T12:37:03;2.10;;;1.50;;
5702;SDS011;2876;51.738;10.050;2022-08-19T12:43:07;2.87;;;1.70;;
5702;SDS011;2876;51.738;10.050;2022-08-19T12:49:09;8.73;;;1.87;;
5702;SDS011;2876;51.738;10.050;2022-08-19T12:55:31;9.33;;;3.40;;
5702;SDS011;2876;51.738;10.050;2022-08-19T13:01:33;2.17;;;1.53;;
5702;SDS011;2876;51.738;10.050;2022-08-19T13:07:35;1.27;;;1.17;;
5702;SDS011;2876;51.738;10.050;2022-08-19T13:13:40;2.40;;;1.50;;
5702;SDS011;2876;51.738;10.050;2022-08-19T13:19:43;2.00;;;1.70;;
5702;SDS011;2876;51.738;10.050;2022-08-19T13:25:54;1.33;;;1.23;;
5702;SDS011;2876;51.738;10.050;2022-08-19T13:32:03;1.97;;;1.30;;
5702;SDS011;2876;51.738;10.050;2022-08-19T13:38:26;1.40;;;1.30;;
5702;SDS011;2876;51.738;10.050;2022-08-19T13:44:29;3.20;;;1.40;;
5702;SDS011;2876;51.738;10.050;2022-08-19T13:50:32;1.37;;;1.27;;
5702;SDS011;2876;51.738;10.050;2022-08-19T13:56:39;1.43;;;1.30;;
5702;SDS011;2876;51.738;10.050;2022-08-19T14:02:51;4.00;;;1.40;;
5702;SDS011;2876;51.738;10.050;2022-08-19T14:08:57;1.40;;;1.30;;
5702;SDS011;2876;51.738;10.050;2022-08-19T14:14:59;2.83;;;1.60;;
5702;SDS011;2876;51.738;10.050;2022-08-19T14:21:03;1.40;;;1.30;;
5702;SDS011;2876;51.738;10.050;2022-08-19T14:27:06;4.03;;;1.50;;
5702;SDS011;2876;51.738;10.050;2022-08-19T14:33:08;2.30;;;1.20;;
5702;SDS011;2876;51.738;10.050;2022-08-19T14:39:10;2.80;;;1.50;;
5702;SDS011;2876;51.738;10.050;2022-08-19T14:45:12;1.40;;;1.10;;
5702;SDS011;2876;51.738;10.050;2022-08-19T14:51:15;1.90;;;1.50;;
5702;SDS011;2876;51.738;10.050;2022-08-19T14:57:17;1.63;;;1.53;;
5702;SDS011;2876;51.738;10.050;2022-08-19T15:03:20;1.50;;;1.40;;
5702;SDS011;2876;51.738;10.050;2022-08-19T15:09:22;2.17;;;1.77;;
5702;SDS011;2876;51.738;10.050;2022-08-19T15:15:24;2.60;;;1.47;;
5702;SDS011;2876;51.738;10.050;2022-08-19T15:21:27;1.63;;;1.53;;
5702;SDS011;2876;51.738;10.050;2022-08-19T15:27:30;2.30;;;1.67;;
5702;SDS011;2876;51.738;10.050;2022-08-19T15:33:33;1.63;;;1.50;;
5702;SDS011;2876;51.738;10.050;2022-08-19T15:39:48;2.03;;;1.60;;
5702;SDS011;2876;51.738;10.050;2022-08-19T15:45:51;9.30;;;1.83;;
5702;SDS011;2876;51.738;10.050;2022-08-19T15:51:53;13.53;;;2.23;;
5702;SDS011;2876;51.738;10.050;2022-08-19T15:57:58;1.40;;;1.30;;
5702;SDS011;2876;51.738;10.050;2022-08-19T16:04:30;3.83;;;1.80;;
5702;SDS011;2876;51.738;10.050;2022-08-19T16:10:50;4.03;;;1.50;;
5702;SDS011;2876;51.738;10.050;2022-08-19T16:16:52;3.30;;;1.80;;
5702;SDS011;2876;51.738;10.050;2022-08-19T16:22:57;3.30;;;1.70;;
5702;SDS011;2876;51.738;10.050;2022-08-19T16:29:00;12.23;;;1.73;;
5702;SDS011;2876;51.738;10.050;2022-08-19T16:35:09;4.90;;;1.60;;
5702;SDS011;2876;51.738;10.050;2022-08-19T16:41:11;26.73;;;2.10;;
5702;SDS011;2876;51.738;10.050;2022-08-19T16:47:17;3.03;;;1.60;;
5702;SDS011;2876;51.738;10.050;2022-08-19T16:53:20;3.50;;;1.67;;
5702;SDS011;2876;51.738;10.050;2022-08-19T16:59:29;2.43;;;1.63;;
5702;SDS011;2876;51.738;10.050;2022-08-19T17:05:31;1.53;;;1.40;;
5702;SDS011;2876;51.738;10.050;2022-08-19T17:11:33;1.63;;;1.30;;
5702;SDS011;2876;51.738;10.050;2022-08-19T17:17:36;1.67;;;1.57;;
5702;SDS011;2876;51.738;10.050;2022-08-19T17:23:38;3.60;;;1.40;;
5702;SDS011;2876;51.738;10.050;2022-08-19T17:29:44;7.70;;;1.90;;
5702;SDS011;2876;51.738;10.050;2022-08-19T17:35:47;2.40;;;1.80;;
5702;SDS011;2876;51.738;10.050;2022-08-19T17:41:50;1.30;;;1.20;;
5702;SDS011;2876;51.738;10.050;2022-08-19T17:47:52;1.33;;;1.23;;
5702;SDS011;2876;51.738;10.050;2022-08-19T17:53:55;1.80;;;1.50;;
5702;SDS011;2876;51.738;10.050;2022-08-19T17:59:57;1.50;;;1.40;;
5702;SDS011;2876;51.738;10.050;2022-08-19T18:06:02;4.90;;;1.70;;
5702;SDS011;2876;51.738;10.050;2022-08-19T18:12:04;3.00;;;1.60;;
5702;SDS011;2876;51.738;10.050;2022-08-19T18:18:08;1.83;;;1.50;;
5702;SDS011;2876;51.738;10.050;2022-08-19T18:24:15;2.90;;;1.37;;
5702;SDS011;2876;51.738;10.050;2022-08-19T18:30:18;3.67;;;1.87;;
5702;SDS011;2876;51.738;10.050;2022-08-19T18:36:22;5.30;;;1.70;;
5702;SDS011;2876;51.738;10.050;2022-08-19T18:42:46;3.43;;;1.60;;
5702;SDS011;2876;51.738;10.050;2022-08-19T18:49:07;2.03;;;1.50;;
5702;SDS011;2876;51.738;10.050;2022-08-19T18:55:10;2.00;;;1.60;;
5702;SDS011;2876;51.738;10.050;2022-08-19T19:01:14;7.57;;;1.87;;
5702;SDS011;2876;51.738;10.050;2022-08-19T19:07:21;2.70;;;1.77;;
5702;SDS011;2876;51.738;10.050;2022-08-19T19:13:24;8.47;;;2.43;;
5702;SDS011;2876;51.738;10.050;2022-08-19T19:19:29;3.50;;;1.60;;
5702;SDS011;2876;51.738;10.050;2022-08-19T19:25:32;2.40;;;1.60;;
5702;SDS011;2876;51.738;10.050;2022-08-19T19:31:51;4.63;;;1.63;;
5702;SDS011;2876;51.738;10.050;2022-08-19T19:37:56;11.23;;;1.90;;
5702;SDS011;2876;51.738;10.050;2022-08-19T19:43:59;12.80;;;3.30;;
5702;SDS011;2876;51.738;10.050;2022-08-19T19:50:22;3.00;;;1.47;;
5702;SDS011;2876;51.738;10.050;2022-08-19T19:56:24;8.10;;;2.50;;
5702;SDS011;2876;51.738;10.050;2022-08-19T20:02:26;7.67;;;1.67;;
5702;SDS011;2876;51.738;10.050;2022-08-19T20:08:28;4.07;;;1.60;;
5702;SDS011;2876;51.738;10.050;2022-08-19T20:14:49;4.33;;;1.80;;
5702;SDS011;2876;51.738;10.050;2022-08-19T20:20:51;1.87;;;1.47;;
5702;SDS011;2876;51.738;10.050;2022-08-19T20:26:53;1.83;;;1.60;;
5702;SDS011;2876;51.738;10.050;2022-08-19T20:32:55;2.23;;;1.80;;
5702;SDS011;2876;51.738;10.050;2022-08-19T20:38:57;6.77;;;2.30;;
5702;SDS011;2876;51.738;10.050;2022-08-19T20:45:01;1.77;;;1.53;;
5702;SDS011;2876;51.738;10.050;2022-08-19T20:51:18;3.97;;;1.60;;
5702;SDS011;2876;51.738;10.050;2022-08-19T20:57:21;5.03;;;1.77;;
5702;SDS011;2876;51.738;10.050;2022-08-19T21:03:23;6.13;;;1.70;;
5702;SDS011;2876;51.738;10.050;2022-08-19T21:09:28;2.60;;;1.40;;
5702;SDS011;2876;51.738;10.050;2022-08-19T21:15:31;1.77;;;1.67;;
5702;SDS011;2876;51.738;10.050;2022-08-19T21:21:34;5.80;;;1.47;;
5702;SDS011;2876;51.738;10.050;2022-08-19T21:27:36;4.50;;;2.00;;
5702;SDS011;2876;51.738;10.050;2022-08-19T21:33:38;2.73;;;1.60;;
5702;SDS011;2876;51.738;10.050;2022-08-19T21:39:41;2.30;;;1.50;;
5702;SDS011;2876;51.738;10.050;2022-08-19T21:45:44;3.27;;;1.63;;
5702;SDS011;2876;51.738;10.050;2022-08-19T21:51:48;2.63;;;1.90;;
5702;SDS011;2876;51.738;10.050;2022-08-19T21:57:50;2.17;;;1.30;;
5702;SDS011;2876;51.738;10.050;2022-08-19T22:03:52;1.63;;;1.53;;
5702;SDS011;2876;51.738;10.050;2022-08-19T22:09:55;7.70;;;1.70;;
5702;SDS011;2876;51.738;10.050;2022-08-19T22:15:56;2.60;;;1.73;;
5702;SDS011;2876;51.738;10.050;2022-08-19T22:21:59;2.10;;;1.80;;
5702;SDS011;2876;51.738;10.050;2022-08-19T22:28:02;1.90;;;1.70;;
5702;SDS011;2876;51.738;10.050;2022-08-19T22:34:11;1.80;;;1.50;;
5702;SDS011;2876;51.738;10.050;2022-08-19T22:40:13;2.10;;;1.73;;
5702;SDS011;2876;51.738;10.050;2022-08-19T22:46:16;3.40;;;1.73;;
5702;SDS011;2876;51.738;10.050;2022-08-19T22:52:18;2.20;;;2.00;;
5702;SDS011;2876;51.738;10.050;2022-08-19T22:58:20;1.80;;;1.60;;
5702;SDS011;2876;51.738;10.050;2022-08-19T23:04:28;2.17;;;1.97;;
5702;SDS011;2876;51.738;10.050;2022-08-19T23:10:30;4.40;;;2.00;;
5702;SDS011;2876;51.738;10.050;2022-08-19T23:16:33;3.70;;;2.20;;
5702;SDS011;2876;51.738;10.050;2022-08-19T23:22:36;2.53;;;2.13;;
5702;SDS011;2876;51.738;10.050;2022-08-19T23:28:39;5.00;;;2.47;;
5702;SDS011;2876;51.738;10.050;2022-08-19T23:35:00;4.27;;;2.60;;
5702;SDS011;2876;51.738;10.050;2022-08-19T23:41:03;4.77;;;3.13;;
5702;SDS011;2876;51.738;10.050;2022-08-19T23:47:08;5.17;;;2.93;;
5702;SDS011;2876;51.738;10.050;2022-08-19T23:53:10;3.30;;;2.77;;
5702;SDS011;2876;51.738;10.050;2022-08-19T23:59:13;5.00;;;2.87;;
